createdAt,value
2022-09-15T00:01:01.094Z,9.07
2022-09-15T00:03:28.438Z,8.52
2022-09-15T00:05:55.431Z,9.32
2022-09-15T00:08:22.913Z,8.60
2022-09-15T00:10:54.140Z,8.50
2022-09-15T00:15:47.562Z,8.88
2022-09-15T00:18:14.346Z,8.43
2022-09-15T00:20:45.336Z,8.75
2022-09-15T00:23:13.616Z,8.52
2022-09-15T00:25:45.651Z,9.07
2022-09-15T00:28:13.076Z,8.80
2022-09-15T00:30:44.801Z,8.38
2022-09-15T00:33:12.725Z,8.45
2022-09-15T00:35:40.665Z,9.20
2022-09-15T00:38:09.074Z,8.70
2022-09-15T00:40:45.561Z,9.30
2022-09-15T00:43:12.682Z,9.43
2022-09-15T00:45:39.029Z,9.65
2022-09-15T00:48:08.245Z,9.70
2022-09-15T00:50:36.977Z,9.15
2022-09-15T00:53:08.861Z,9.38
2022-09-15T00:55:43.293Z,10.27
2022-09-15T00:58:14.229Z,9.93
2022-09-15T01:00:48.971Z,9.18
2022-09-15T01:03:15.683Z,9.73
2022-09-15T01:05:48.539Z,9.98
2022-09-15T01:08:22.367Z,10.00
2022-09-15T01:10:49.155Z,10.30
2022-09-15T01:13:15.573Z,10.27
2022-09-15T01:15:50.763Z,9.75
2022-09-15T01:18:23.240Z,10.02
2022-09-15T01:20:49.514Z,9.60
2022-09-15T01:23:39.723Z,9.95
2022-09-15T01:26:37.230Z,9.90
2022-09-15T01:29:54.737Z,9.90
2022-09-15T01:33:04.603Z,10.45
2022-09-15T01:35:40.073Z,9.68
2022-09-15T01:38:32.984Z,10.18
2022-09-15T01:41:15.469Z,9.73
2022-09-15T01:43:55.618Z,9.60
2022-09-15T01:46:26.023Z,10.73
2022-09-15T01:48:54.861Z,10.40
2022-09-15T01:51:24.003Z,10.45
2022-09-15T01:53:52.739Z,10.65
2022-09-15T01:56:19.275Z,9.95
2022-09-15T01:58:49.135Z,9.80
2022-09-15T02:01:43.686Z,9.85
2022-09-15T02:04:21.786Z,10.85
2022-09-15T02:07:13.326Z,9.82
2022-09-15T02:09:58.651Z,10.63
2022-09-15T02:12:40.127Z,10.82
2022-09-15T02:15:11.529Z,10.43
2022-09-15T02:17:42.613Z,10.30
2022-09-15T02:20:16.577Z,10.23
2022-09-15T02:22:55.642Z,9.90
2022-09-15T02:25:28.861Z,10.02
2022-09-15T02:28:01.862Z,10.43
2022-09-15T02:30:31.978Z,10.15
2022-09-15T02:33:06.633Z,10.10
2022-09-15T02:35:36.136Z,9.85
2022-09-15T02:38:06.525Z,9.98
2022-09-15T02:40:33.338Z,9.67
2022-09-15T02:43:01.710Z,9.55
2022-09-15T02:45:30.991Z,9.48
2022-09-15T02:47:58.477Z,9.38
2022-09-15T02:50:26.498Z,9.35
2022-09-15T02:52:54.189Z,9.75
2022-09-15T02:55:20.916Z,9.70
2022-09-15T02:57:47.518Z,9.35
2022-09-15T03:00:16.686Z,9.98
2022-09-15T03:02:51.576Z,8.68
2022-09-15T03:05:22.883Z,9.23
2022-09-15T03:07:49.951Z,7.88
2022-09-15T03:10:16.598Z,7.47
2022-09-15T03:12:46.126Z,7.82
2022-09-15T03:15:14.715Z,8.55
2022-09-15T03:17:42.579Z,8.05
2022-09-15T03:20:10.502Z,7.68
2022-09-15T03:22:36.878Z,8.60
2022-09-15T03:25:05.492Z,8.18
2022-09-15T03:27:33.327Z,7.93
2022-09-15T03:30:00.003Z,7.50
2022-09-15T03:32:26.340Z,8.35
2022-09-15T03:34:57.677Z,7.55
2022-09-15T03:37:25.030Z,8.80
2022-09-15T03:39:51.432Z,8.25
2022-09-15T03:42:17.835Z,8.77
2022-09-15T03:44:44.156Z,8.48
2022-09-15T03:47:10.491Z,9.82
2022-09-15T03:49:36.863Z,8.45
2022-09-15T03:52:03.274Z,7.72
2022-09-15T03:54:29.657Z,8.05
2022-09-15T03:56:56.154Z,8.32
2022-09-15T03:59:22.529Z,8.30
2022-09-15T04:01:49.822Z,7.75
2022-09-15T04:04:16.617Z,7.85
2022-09-15T04:06:43.910Z,7.93
2022-09-15T04:09:11.050Z,7.85
2022-09-15T04:11:38.383Z,7.80
2022-09-15T04:14:04.882Z,7.28
2022-09-15T04:16:31.257Z,7.65
2022-09-15T04:18:57.876Z,7.32
2022-09-15T04:21:26.685Z,7.32
2022-09-15T04:23:54.141Z,6.95
2022-09-15T04:26:32.210Z,7.95
2022-09-15T04:29:03.645Z,6.72
2022-09-15T04:31:31.188Z,6.78
2022-09-15T04:33:57.619Z,6.45
2022-09-15T04:36:26.029Z,6.47
2022-09-15T04:38:52.803Z,6.28
2022-09-15T04:41:20.068Z,5.85
2022-09-15T04:43:46.844Z,5.90
2022-09-15T04:46:15.112Z,6.03
2022-09-15T04:48:41.564Z,6.13
2022-09-15T04:51:11.688Z,6.28
2022-09-15T04:53:38.370Z,6.03
2022-09-15T04:56:06.713Z,6.55
2022-09-15T04:58:50.545Z,6.07
2022-09-15T05:01:25.577Z,5.68
2022-09-15T05:06:39.058Z,5.85
2022-09-15T05:09:10.263Z,5.68
2022-09-15T05:11:37.783Z,5.68
2022-09-15T05:14:04.109Z,6.10
2022-09-15T05:16:31.421Z,5.95
2022-09-15T05:19:00.213Z,6.00
2022-09-15T05:21:27.417Z,5.47
2022-09-15T05:23:53.950Z,6.38
2022-09-15T05:26:23.348Z,5.85
2022-09-15T05:28:50.100Z,5.95
2022-09-15T05:31:22.252Z,6.05
2022-09-15T05:33:49.603Z,5.57
2022-09-15T05:36:18.411Z,5.95
2022-09-15T05:38:45.157Z,5.97
2022-09-15T05:41:13.839Z,6.00
2022-09-15T05:43:40.286Z,5.90
2022-09-15T05:46:07.867Z,5.82
2022-09-15T05:48:34.946Z,6.20
2022-09-15T05:51:02.296Z,6.20
2022-09-15T05:53:28.895Z,5.95
2022-09-15T05:55:59.414Z,6.30
2022-09-15T05:58:26.956Z,5.63
2022-09-15T06:00:54.477Z,5.55
2022-09-15T06:03:21.981Z,6.03
2022-09-15T06:05:48.679Z,6.18
2022-09-15T06:08:15.671Z,5.90
2022-09-15T06:10:42.227Z,5.78
2022-09-15T06:13:08.608Z,6.25
2022-09-15T06:15:35.055Z,5.55
2022-09-15T06:18:01.453Z,6.47
2022-09-15T06:20:27.830Z,5.47
2022-09-15T06:22:54.447Z,5.82
2022-09-15T06:25:20.797Z,5.38
2022-09-15T06:27:49.467Z,5.28
2022-09-15T06:30:16.362Z,4.93
2022-09-15T06:32:47.518Z,4.50
2022-09-15T06:35:15.099Z,4.85
2022-09-15T06:37:41.586Z,5.10
2022-09-15T06:40:08.726Z,4.50
2022-09-15T06:42:35.118Z,4.45
2022-09-15T06:45:01.494Z,4.13
2022-09-15T06:47:33.724Z,4.03
2022-09-15T06:50:00.699Z,3.50
2022-09-15T06:52:27.407Z,4.10
2022-09-15T06:54:53.741Z,3.50
2022-09-15T06:57:20.195Z,3.42
2022-09-15T06:59:46.504Z,3.40
2022-09-15T07:02:16.034Z,3.63
2022-09-15T07:04:42.652Z,3.95
2022-09-15T07:07:09.241Z,3.33
2022-09-15T07:09:37.970Z,3.28
2022-09-15T07:12:08.030Z,4.18
2022-09-15T07:14:34.338Z,4.00
2022-09-15T07:17:00.719Z,4.60
2022-09-15T07:19:27.162Z,4.60
2022-09-15T07:21:53.477Z,5.00
2022-09-15T07:24:20.071Z,4.70
2022-09-15T07:26:46.412Z,5.07
2022-09-15T07:29:12.848Z,4.80
2022-09-15T07:31:39.734Z,4.20
2022-09-15T07:34:06.728Z,4.85
2022-09-15T07:36:33.581Z,4.80
2022-09-15T07:38:59.978Z,4.40
2022-09-15T07:41:29.457Z,3.78
2022-09-15T07:43:58.513Z,3.22
2022-09-15T07:46:26.502Z,2.92
2022-09-15T07:48:57.080Z,3.75
2022-09-15T07:51:24.407Z,2.47
2022-09-15T07:53:51.743Z,1.67
2022-09-15T07:56:19.091Z,1.50
2022-09-15T07:58:46.643Z,1.25
2022-09-15T08:01:14.709Z,1.02
2022-09-15T08:03:42.665Z,1.05
2022-09-15T08:06:10.096Z,1.15
2022-09-15T08:08:38.705Z,1.20
2022-09-15T08:11:07.238Z,1.25
2022-09-15T08:13:33.576Z,1.02
2022-09-15T08:16:15.065Z,1.30
2022-09-15T08:18:43.034Z,1.25
2022-09-15T08:21:16.949Z,1.35
2022-09-15T08:23:43.506Z,1.50
2022-09-15T08:26:14.091Z,0.93
2022-09-15T08:28:42.151Z,1.33
2022-09-15T08:31:11.264Z,1.60
2022-09-15T08:33:41.834Z,1.38
2022-09-15T08:36:11.423Z,1.30
2022-09-15T08:38:44.131Z,1.40
2022-09-15T08:41:24.231Z,1.05
2022-09-15T08:43:58.241Z,1.30
2022-09-15T08:46:33.614Z,1.45
2022-09-15T08:49:50.161Z,0.90
2022-09-15T08:52:33.590Z,0.80
2022-09-15T08:55:13.216Z,0.77
2022-09-15T08:57:39.634Z,0.90
2022-09-15T09:00:13.456Z,1.52
2022-09-15T09:03:20.028Z,0.80
2022-09-15T09:06:10.827Z,0.80
2022-09-15T09:08:49.789Z,0.77
2022-09-15T09:11:43.812Z,0.75
2022-09-15T09:14:18.644Z,1.17
2022-09-15T09:17:03.649Z,1.00
2022-09-15T09:20:14.753Z,0.70
2022-09-15T09:22:44.039Z,1.23
2022-09-15T09:25:27.235Z,0.77
2022-09-15T09:27:55.395Z,1.00
2022-09-15T09:30:24.992Z,0.70
2022-09-15T09:33:04.871Z,1.10
2022-09-15T09:35:41.927Z,0.65
2022-09-15T09:38:14.463Z,0.98
2022-09-15T09:40:41.326Z,1.23
2022-09-15T09:43:08.593Z,0.77
2022-09-15T09:45:35.213Z,0.52
2022-09-15T09:48:09.694Z,0.70
2022-09-15T09:50:45.228Z,0.73
2022-09-15T09:53:28.657Z,0.45
2022-09-15T09:56:16.183Z,0.65
2022-09-15T09:58:43.483Z,0.50
2022-09-15T10:01:16.479Z,0.43
2022-09-15T10:03:43.845Z,0.60
2022-09-15T10:06:20.519Z,0.50
2022-09-15T10:08:59.110Z,0.63
2022-09-15T10:11:48.743Z,0.57
2022-09-15T10:14:22.158Z,0.70
2022-09-15T10:16:58.484Z,0.50
2022-09-15T10:19:25.063Z,0.40
2022-09-15T10:21:51.618Z,0.90
2022-09-15T10:24:33.351Z,0.57
2022-09-15T10:27:08.252Z,0.60
2022-09-15T10:29:39.626Z,0.73
2022-09-15T10:32:29.261Z,0.60
2022-09-15T10:35:13.903Z,0.35
2022-09-15T10:37:58.504Z,0.70
2022-09-15T10:40:39.809Z,0.20
2022-09-15T10:45:48.786Z,0.30
2022-09-15T10:48:52.901Z,0.47
2022-09-15T10:51:31.296Z,0.35
2022-09-15T10:54:23.898Z,0.80
2022-09-15T10:56:57.808Z,0.40
2022-09-15T10:59:50.419Z,0.47
2022-09-15T11:02:55.182Z,0.50
2022-09-15T11:05:39.394Z,0.28
2022-09-15T11:08:11.796Z,0.15
2022-09-15T11:10:56.775Z,0.60
2022-09-15T11:14:00.611Z,0.47
2022-09-15T11:16:41.464Z,0.80
2022-09-15T11:19:18.156Z,0.68
2022-09-15T11:21:55.314Z,0.50
2022-09-15T11:24:34.586Z,0.40
2022-09-15T11:27:12.321Z,0.40
2022-09-15T11:29:47.636Z,0.47
2022-09-15T11:32:24.287Z,0.80
2022-09-15T11:34:58.510Z,0.60
2022-09-15T11:37:31.809Z,0.85
2022-09-15T11:40:23.975Z,0.35
2022-09-15T11:43:18.390Z,0.30
2022-09-15T11:45:50.975Z,0.22
2022-09-15T11:48:42.931Z,0.30
2022-09-15T11:51:13.302Z,0.20
2022-09-15T11:53:50.560Z,0.40
2022-09-15T11:56:27.600Z,0.70
2022-09-15T11:59:04.415Z,0.40
2022-09-15T12:01:55.960Z,0.20
2022-09-15T12:04:28.925Z,0.57
2022-09-15T12:07:04.262Z,0.40
2022-09-15T12:09:31.056Z,0.32
2022-09-15T12:12:02.843Z,0.20
2022-09-15T12:14:36.284Z,0.28
2022-09-15T12:17:05.812Z,1.02
2022-09-15T12:19:33.402Z,0.90
2022-09-15T12:22:14.870Z,0.50
2022-09-15T12:24:53.365Z,0.60
2022-09-15T12:27:20.794Z,0.65
2022-09-15T12:29:51.343Z,0.65
2022-09-15T12:32:29.047Z,0.30
2022-09-15T12:35:04.561Z,0.47
2022-09-15T12:37:37.226Z,0.60
2022-09-15T12:40:07.672Z,0.50
2022-09-15T12:42:36.916Z,0.50
2022-09-15T12:45:24.427Z,0.60
2022-09-15T12:47:54.570Z,0.40
2022-09-15T12:50:33.787Z,0.60
2022-09-15T12:53:03.685Z,0.90
2022-09-15T12:55:35.076Z,0.43
2022-09-15T12:58:08.393Z,0.68
2022-09-15T13:00:50.031Z,0.50
2022-09-15T13:03:48.722Z,0.73
2022-09-15T13:06:25.408Z,0.90
2022-09-15T13:09:25.105Z,0.85
2022-09-15T13:11:52.006Z,0.60
2022-09-15T13:14:37.869Z,0.80
2022-09-15T13:17:14.132Z,0.70
2022-09-15T13:19:46.422Z,0.75
2022-09-15T13:35:14.083Z,0.60
2022-09-15T13:56:35.547Z,0.82
2022-09-15T14:01:46.984Z,0.60
2022-09-15T14:04:16.546Z,0.50
2022-09-15T14:06:45.705Z,0.65
2022-09-15T14:09:18.916Z,0.45
2022-09-15T14:11:48.544Z,0.50
2022-09-15T14:14:31.846Z,0.40
2022-09-15T14:16:58.350Z,0.60
2022-09-15T14:19:31.143Z,0.50
2022-09-15T14:21:58.784Z,0.60
2022-09-15T14:24:28.936Z,0.88
2022-09-15T14:26:56.882Z,0.50
2022-09-15T14:29:26.344Z,0.70
2022-09-15T14:31:53.900Z,0.50
2022-09-15T14:34:24.330Z,0.50
2022-09-15T14:37:05.022Z,0.55
2022-09-15T14:39:33.327Z,0.40
2022-09-15T14:42:09.350Z,0.50
2022-09-15T14:47:27.984Z,0.30
2022-09-15T14:50:13.483Z,0.38
2022-09-15T14:53:04.004Z,0.50
2022-09-15T14:55:40.978Z,0.40
2022-09-15T14:58:15.941Z,0.50
2022-09-15T15:01:13.764Z,0.63
2022-09-15T15:03:49.244Z,0.80
2022-09-15T15:06:28.778Z,0.50
2022-09-15T15:09:37.564Z,0.80
2022-09-15T15:12:15.719Z,0.77
2022-09-15T15:14:42.511Z,0.40
2022-09-15T15:17:26.604Z,0.30
2022-09-15T15:20:15.321Z,0.55
2022-09-15T15:22:43.178Z,2.03
2022-09-15T15:25:37.137Z,1.90
2022-09-15T15:28:05.451Z,1.13
2022-09-15T15:30:49.950Z,0.43
2022-09-15T15:33:27.927Z,0.50
2022-09-15T15:36:06.825Z,3.97
2022-09-15T15:38:35.737Z,5.97
2022-09-15T15:41:07.894Z,3.47
2022-09-15T15:43:34.833Z,1.75
2022-09-15T15:46:04.334Z,1.00
2022-09-15T15:48:37.906Z,1.40
2022-09-15T15:51:06.834Z,2.45
2022-09-15T15:53:34.166Z,1.23
2022-09-15T15:56:01.107Z,0.70
2022-09-15T15:58:27.615Z,0.60
2022-09-15T16:00:56.355Z,0.95
2022-09-15T16:03:24.203Z,0.70
2022-09-15T16:05:57.523Z,0.90
2022-09-15T16:08:37.942Z,1.40
2022-09-15T16:11:07.680Z,7.10
2022-09-15T16:13:34.382Z,3.38
2022-09-15T16:16:01.151Z,1.65
2022-09-15T16:18:28.485Z,2.85
2022-09-15T16:20:54.940Z,1.60
2022-09-15T16:23:22.830Z,0.70
2022-09-15T16:26:02.461Z,0.50
2022-09-15T16:28:29.091Z,0.88
2022-09-15T16:30:56.712Z,1.20
2022-09-15T16:33:23.952Z,1.33
2022-09-15T16:36:06.935Z,1.77
2022-09-15T16:38:35.256Z,1.40
2022-09-15T16:41:03.160Z,1.00
2022-09-15T16:43:29.580Z,0.60
2022-09-15T16:45:56.376Z,0.50
2022-09-15T16:48:22.936Z,0.50
2022-09-15T16:51:02.412Z,0.40
2022-09-15T16:53:39.319Z,0.68
2022-09-15T16:56:07.524Z,0.90
2022-09-15T16:58:34.193Z,0.32
2022-09-15T17:01:00.708Z,1.00
2022-09-15T17:03:27.545Z,0.80
2022-09-15T17:05:59.565Z,2.40
2022-09-15T17:08:29.359Z,3.15
2022-09-15T17:10:57.919Z,1.90
2022-09-15T17:13:29.338Z,1.38
2022-09-15T17:15:57.274Z,1.02
2022-09-15T17:18:23.911Z,0.80
2022-09-15T17:20:51.759Z,1.10
2022-09-15T17:23:25.606Z,0.50
2022-09-15T17:25:57.415Z,0.30
2022-09-15T17:28:26.268Z,0.77
2022-09-15T17:30:57.099Z,0.30
2022-09-15T17:33:24.089Z,0.45
2022-09-15T17:35:50.747Z,0.75
2022-09-15T17:38:20.126Z,0.52
2022-09-15T17:40:55.643Z,0.50
2022-09-15T17:43:25.253Z,0.77
2022-09-15T17:45:52.662Z,0.43
2022-09-15T17:48:19.649Z,0.50
2022-09-15T17:50:48.769Z,0.43
2022-09-15T17:53:17.083Z,0.20
2022-09-15T17:55:43.541Z,0.50
2022-09-15T17:58:10.335Z,0.30
2022-09-15T18:00:39.332Z,0.43
2022-09-15T18:03:30.824Z,0.43
2022-09-15T18:05:59.337Z,0.30
2022-09-15T18:08:26.900Z,0.50
2022-09-15T18:10:54.178Z,0.40
2022-09-15T18:13:23.370Z,0.40
2022-09-15T18:15:51.473Z,0.30
2022-09-15T18:18:20.746Z,0.30
2022-09-15T18:20:49.619Z,0.30
2022-09-15T18:23:21.975Z,0.32
2022-09-15T18:25:50.075Z,0.70
2022-09-15T18:28:17.879Z,0.47
2022-09-15T18:30:49.042Z,0.32
2022-09-15T18:35:43.342Z,0.63
2022-09-15T18:38:10.434Z,0.60
2022-09-15T18:40:37.314Z,0.40
2022-09-15T18:43:04.262Z,0.40
2022-09-15T18:45:30.606Z,0.60
2022-09-15T18:48:00.182Z,0.43
2022-09-15T18:50:27.058Z,1.08
2022-09-15T18:52:53.637Z,0.30
2022-09-15T18:55:21.937Z,0.43
2022-09-15T18:57:48.823Z,0.40
2022-09-15T19:00:19.286Z,0.43
2022-09-15T19:02:46.133Z,0.57
2022-09-15T19:05:22.126Z,0.73
2022-09-15T19:07:48.958Z,0.45
2022-09-15T19:10:18.367Z,0.50
2022-09-15T19:12:44.892Z,0.50
2022-09-15T19:15:15.708Z,0.40
2022-09-15T19:17:43.187Z,0.40
2022-09-15T19:20:14.276Z,1.10
2022-09-15T19:22:41.522Z,0.40
2022-09-15T19:25:09.324Z,0.47
2022-09-15T19:27:40.029Z,0.45
2022-09-15T19:30:09.762Z,0.40
2022-09-15T19:32:36.893Z,0.60
2022-09-15T19:35:04.306Z,0.55
2022-09-15T19:37:30.666Z,0.40
2022-09-15T19:39:57.082Z,0.60
2022-09-15T19:42:23.519Z,0.85
2022-09-15T19:44:50.559Z,0.50
2022-09-15T19:47:17.121Z,0.50
2022-09-15T19:49:43.485Z,0.60
2022-09-15T19:52:09.852Z,0.40
2022-09-15T19:54:36.520Z,0.45
2022-09-15T19:57:03.349Z,0.22
2022-09-15T19:59:31.686Z,0.20
2022-09-15T20:02:01.084Z,0.20
2022-09-15T20:04:31.933Z,0.20
2022-09-15T20:06:58.687Z,0.80
2022-09-15T20:09:26.281Z,0.35
2022-09-15T20:11:52.736Z,0.30
2022-09-15T20:14:19.268Z,0.50
2022-09-15T20:16:48.764Z,0.40
2022-09-15T20:19:15.382Z,0.25
2022-09-15T20:21:51.237Z,0.30
2022-09-15T20:24:20.081Z,0.28
2022-09-15T20:26:46.641Z,0.20
2022-09-15T20:29:13.792Z,0.30
2022-09-15T20:31:40.335Z,0.30
2022-09-15T20:34:09.644Z,0.50
2022-09-15T20:36:38.679Z,0.30
2022-09-15T20:39:09.241Z,0.50
2022-09-15T20:41:35.700Z,0.38
2022-09-15T20:44:08.977Z,0.45
2022-09-15T20:46:36.297Z,0.60
2022-09-15T20:49:03.208Z,0.30
2022-09-15T20:51:31.587Z,0.40
2022-09-15T20:54:00.354Z,0.57
2022-09-15T20:56:28.733Z,0.55
2022-09-15T20:59:03.027Z,0.50
2022-09-15T21:01:33.031Z,0.60
2022-09-15T21:03:59.537Z,0.95
2022-09-15T21:06:27.784Z,0.40
2022-09-15T21:08:56.556Z,0.50
2022-09-15T21:11:24.053Z,0.60
2022-09-15T21:13:51.139Z,0.68
2022-09-15T21:16:23.645Z,0.38
2022-09-15T21:18:51.477Z,0.50
2022-09-15T21:21:30.126Z,0.93
2022-09-15T21:24:01.111Z,0.43
2022-09-15T21:26:32.319Z,0.45
2022-09-15T21:31:27.498Z,1.08
2022-09-15T21:33:54.732Z,0.73
2022-09-15T21:36:29.615Z,0.75
2022-09-15T21:38:58.302Z,0.55
2022-09-15T21:41:27.429Z,0.63
2022-09-15T21:43:58.315Z,0.73
2022-09-15T21:46:30.556Z,0.65
2022-09-15T21:48:58.627Z,0.77
2022-09-15T21:51:27.006Z,0.98
2022-09-15T21:53:54.915Z,0.47
2022-09-15T21:56:22.191Z,0.47
2022-09-15T21:58:48.630Z,1.10
2022-09-15T22:01:19.578Z,1.08
2022-09-15T22:03:50.872Z,0.60
2022-09-15T22:08:44.710Z,0.60
2022-09-15T22:11:11.531Z,0.50
2022-09-15T22:13:41.431Z,0.70
2022-09-15T22:16:11.886Z,0.32
2022-09-15T22:18:39.812Z,0.60
2022-09-15T22:21:15.300Z,0.77
2022-09-15T22:23:42.931Z,0.98
2022-09-15T22:26:15.673Z,0.60
2022-09-15T22:28:42.621Z,0.50
2022-09-15T22:31:11.425Z,0.77
2022-09-15T22:33:40.771Z,0.80
2022-09-15T22:36:11.321Z,0.65
2022-09-15T22:38:38.317Z,0.90
2022-09-15T22:41:07.418Z,1.15
2022-09-15T22:43:33.735Z,1.10
2022-09-15T22:46:00.217Z,1.40
2022-09-15T22:48:26.761Z,1.40
2022-09-15T22:50:53.111Z,1.30
2022-09-15T22:53:21.243Z,1.17
2022-09-15T22:55:47.542Z,1.27
2022-09-15T22:58:13.918Z,1.55
2022-09-15T23:00:40.321Z,1.00
2022-09-15T23:03:07.359Z,0.98
2022-09-15T23:05:34.329Z,0.88
2022-09-15T23:08:00.907Z,0.88
2022-09-15T23:10:28.067Z,1.00
2022-09-15T23:12:54.402Z,1.42
2022-09-15T23:15:20.747Z,1.10
2022-09-15T23:17:47.200Z,1.38
2022-09-15T23:20:13.616Z,0.98
2022-09-15T23:22:40.009Z,0.93
2022-09-15T23:25:06.645Z,0.90
2022-09-15T23:27:33.030Z,1.35
2022-09-15T23:29:59.369Z,1.13
2022-09-15T23:32:25.694Z,1.10
2022-09-15T23:34:52.787Z,0.80
2022-09-15T23:37:19.164Z,1.00
2022-09-15T23:39:45.586Z,0.80
2022-09-15T23:42:14.525Z,0.90
2022-09-15T23:44:44.459Z,0.90
2022-09-15T23:47:11.728Z,0.80
2022-09-15T23:49:38.206Z,0.70
2022-09-15T23:52:04.536Z,1.40
2022-09-15T23:54:30.876Z,1.00
2022-09-15T23:56:57.213Z,0.75
2022-09-15T23:59:23.523Z,0.80
